Time;durP1;ratioP1;P1;durP2;ratioP2;P2;SDS_P1;SDS_P2;PMS_P1;PMS_P2;Temp;Humidity;BMP_temperature;BMP_pressure;BME280_temperature;BME280_humidity;BME280_pressure;Samples;Min_cycle;Max_cycle;Signal;HPM_P1;HPM_P2
2022/08/15 00:01:01;;;;;;;6.95;4.45;;;;;;;18.08;100.00;100297.53;5064227;28;20024;-75
2022/08/15 00:03:42;;;;;;;11.07;4.60;;;;;;;18.05;100.00;100295.25;5064751;28;20147;-76
2022/08/15 00:06:13;;;;;;;8.23;4.00;;;;;;;18.03;100.00;100284.69;5064463;28;20119;-75
2022/08/15 00:08:42;;;;;;;8.68;4.78;;;;;;;17.98;100.00;100289.94;5064766;28;20055;-74
2022/08/15 00:11:21;;;;;;;10.35;4.93;;;;;;;17.91;100.00;100275.63;5063886;28;20123;-75
2022/08/15 00:13:55;;;;;;;6.50;4.65;;;;;;;17.83;100.00;100267.84;5066077;28;20698;-74
2022/08/15 00:16:21;;;;;;;11.10;4.85;;;;;;;17.73;100.00;100274.53;5064521;28;20382;-74
2022/08/15 00:18:48;;;;;;;7.10;4.75;;;;;;;17.67;100.00;100266.50;5069812;28;20020;-74
2022/08/15 00:21:14;;;;;;;9.10;5.07;;;;;;;17.57;100.00;100258.88;5066321;28;20060;-74
2022/08/15 00:23:40;;;;;;;11.98;4.45;;;;;;;17.54;100.00;100264.75;5065747;28;20055;-74
2022/08/15 00:26:06;;;;;;;;;;;;;;;17.57;100.00;100269.69;5065848;28;20143;-75
2022/08/15 00:28:31;;;;;;;;;;;;;;;17.62;100.00;100261.75;5066082;28;20011;-74
2022/08/15 00:30:56;;;;;;;6.03;4.77;;;;;;;17.63;100.00;100262.56;5063667;28;19927;-75
2022/08/15 00:33:22;;;;;;;11.83;5.47;;;;;;;17.61;100.00;100252.00;5064542;28;20035;-75
2022/08/15 00:35:49;;;;;;;8.20;4.77;;;;;;;17.57;100.00;100247.28;5055755;28;20075;-74
2022/08/15 00:38:18;;;;;;;11.45;5.07;;;;;;;17.54;100.00;100253.94;5064159;28;20028;-76
2022/08/15 00:43:33;;;;;;;7.50;5.50;;;;;;;17.61;100.00;100257.41;5064345;28;20032;-74
2022/08/15 00:45:59;;;;;;;11.93;6.13;;;;;;;17.62;100.00;100250.94;5078624;28;20050;-75
2022/08/15 00:48:41;;;;;;;7.75;5.40;;;;;;;17.64;100.00;100248.88;5064763;28;20078;-75
2022/08/15 00:51:11;;;;;;;9.25;5.82;;;;;;;17.57;100.00;100234.59;5055085;28;20060;-76
2022/08/15 00:53:38;;;;;;;12.15;5.30;;;;;;;17.52;100.00;100219.06;5067862;28;20497;-74
2022/08/15 00:56:07;;;;;;;8.35;5.75;;;;;;;17.49;100.00;100219.53;5068948;28;20017;-74
2022/08/15 00:58:33;;;;;;;8.43;5.93;;;;;;;17.54;100.00;100226.97;5054769;28;20024;-75
2022/08/15 01:00:59;;;;;;;12.23;5.93;;;;;;;17.52;100.00;100212.84;5069239;28;20016;-74
2022/08/15 01:03:29;;;;;;;8.07;5.50;;;;;;;17.51;100.00;100208.47;5076398;28;20041;-74
2022/08/15 01:05:59;;;;;;;10.13;6.20;;;;;;;17.44;100.00;100215.81;5068132;28;20527;-75
2022/08/15 01:08:27;;;;;;;7.72;5.57;;;;;;;17.35;100.00;100217.97;5069225;28;20039;-74
2022/08/15 01:10:59;;;;;;;8.70;6.10;;;;;;;17.34;100.00;100219.00;5067324;28;20017;-74
2022/08/15 01:13:24;;;;;;;12.05;5.68;;;;;;;17.33;100.00;100211.16;5051014;28;20455;-74
2022/08/15 01:15:51;;;;;;;11.32;6.75;;;;;;;17.38;100.00;100222.09;5051046;28;20021;-74
2022/08/15 01:18:17;;;;;;;10.43;6.55;;;;;;;17.37;100.00;100215.03;5067836;28;20036;-75
2022/08/15 01:20:44;;;;;;;12.85;6.50;;;;;;;17.28;100.00;100209.94;5068803;28;20488;-74
2022/08/15 01:23:44;;;;;;;12.32;6.65;;;;;;;17.24;100.00;100208.72;5059253;28;20036;-76
2022/08/15 01:26:12;;;;;;;9.07;6.13;;;;;;;17.22;100.00;100213.50;5067612;28;20094;-74
2022/08/15 01:28:42;;;;;;;12.90;6.85;;;;;;;17.22;100.00;100205.41;5067579;28;20450;-74
2022/08/15 01:31:11;;;;;;;11.50;6.82;;;;;;;17.25;100.00;100202.25;5066925;28;20031;-75
2022/08/15 01:33:57;;;;;;;7.95;6.05;;;;;;;17.19;100.00;100208.56;5069480;28;20024;-74
2022/08/15 01:36:26;;;;;;;11.82;6.28;;;;;;;17.17;100.00;100201.72;5084602;28;20032;-74
2022/08/15 01:39:09;;;;;;;9.65;6.15;;;;;;;17.20;100.00;100202.09;5085477;28;20032;-76
2022/08/15 01:41:50;;;;;;;11.63;7.00;;;;;;;17.24;100.00;100200.63;5075903;28;20034;-74
2022/08/15 01:44:22;;;;;;;10.40;6.78;;;;;;;17.25;100.00;100202.25;5067719;28;20522;-75
2022/08/15 01:47:07;;;;;;;14.48;6.95;;;;;;;17.26;100.00;100198.53;5085514;28;20036;-74
2022/08/15 01:49:39;;;;;;;8.77;6.15;;;;;;;17.23;100.00;100193.59;5069522;28;20039;-74
2022/08/15 01:52:05;;;;;;;9.35;6.72;;;;;;;17.26;100.00;100193.13;5085353;28;20146;-74
2022/08/15 01:54:43;;;;;;;11.07;6.80;;;;;;;17.26;100.00;100193.13;5077678;28;20023;-75
2022/08/15 01:57:09;;;;;;;12.10;7.13;;;;;;;17.25;100.00;100190.66;5084542;28;20061;-75
2022/08/15 01:59:35;;;;;;;14.98;6.93;;;;;;;17.30;100.00;100197.06;5084888;28;20016;-75
2022/08/15 02:02:06;;;;;;;10.83;6.43;;;;;;;17.29;100.00;100190.00;5077964;28;20055;-74
2022/08/15 02:04:38;;;;;;;11.43;6.75;;;;;;;17.28;100.00;100196.44;5084653;28;20117;-77
2022/08/15 02:07:12;;;;;;;10.43;7.35;;;;;;;17.26;100.00;100185.03;5084997;28;20465;-74
2022/08/15 02:09:41;;;;;;;10.45;7.18;;;;;;;17.21;100.00;100174.09;5070733;28;20036;-74
2022/08/15 02:12:09;;;;;;;9.35;7.93;;;;;;;17.20;100.00;100177.00;5084395;28;20032;-74
2022/08/15 02:14:41;;;;;;;12.25;7.50;;;;;;;17.17;100.00;100175.56;5071342;28;20081;-74
2022/08/15 02:17:13;;;;;;;10.68;6.70;;;;;;;17.15;100.00;100164.16;5084222;28;20056;-75
2022/08/15 02:19:41;;;;;;;16.30;7.57;;;;;;;17.17;100.00;100166.66;5084422;28;20024;-75
2022/08/15 02:22:10;;;;;;;11.90;7.22;;;;;;;17.14;100.00;100167.06;5084161;28;20028;-75
2022/08/15 02:24:37;;;;;;;14.27;8.13;;;;;;;17.12;100.00;100172.72;5069969;28;20028;-74
2022/08/15 02:27:05;;;;;;;10.50;7.50;;;;;;;17.11;100.00;100167.53;5084776;28;20035;-75
2022/08/15 02:29:31;;;;;;;8.13;7.10;;;;;;;17.08;100.00;100164.22;5083332;28;20039;-75
2022/08/15 02:32:03;;;;;;;11.82;7.40;;;;;;;17.03;100.00;100160.53;5084792;28;20497;-75
2022/08/15 02:34:29;;;;;;;10.65;6.93;;;;;;;17.06;100.00;100171.69;5052086;28;20036;-75
2022/08/15 02:36:55;;;;;;;14.27;9.27;;;;;;;17.05;100.00;100169.25;5076948;28;20069;-75
2022/08/15 02:39:23;;;;;;;14.57;8.23;;;;;;;17.04;100.00;100162.19;5083082;28;20032;-75
2022/08/15 02:41:50;;;;;;;;;;;;;;;16.99;100.00;100153.94;5085007;28;20192;-75
2022/08/15 02:44:20;;;;;;;12.00;7.25;;;;;;;16.95;100.00;100152.72;5066956;28;20329;-75
2022/08/15 02:46:49;;;;;;;13.93;6.82;;;;;;;16.94;100.00;100151.06;5079617;28;20471;-75
2022/08/15 02:49:16;;;;;;;12.02;6.47;;;;;;;16.92;100.00;100155.84;5082779;28;20028;-75
2022/08/15 02:51:42;;;;;;;11.13;6.95;;;;;;;16.91;100.00;100152.34;5067005;28;20035;-75
2022/08/15 02:54:10;;;;;;;10.77;6.45;;;;;;;16.84;100.00;100157.75;5083361;28;20054;-74
2022/08/15 02:56:37;;;;;;;10.57;7.32;;;;;;;16.85;100.00;100153.19;5085548;28;20541;-75
2022/08/15 02:59:07;;;;;;;12.52;7.43;;;;;;;16.83;100.00;100148.03;5085000;28;20058;-75
2022/08/15 03:01:38;;;;;;;13.20;6.90;;;;;;;16.82;100.00;100149.06;5083962;28;20024;-74
2022/08/15 03:04:08;;;;;;;11.02;7.20;;;;;;;16.81;100.00;100147.44;5083660;28;20051;-75
2022/08/15 03:06:35;;;;;;;12.20;6.85;;;;;;;16.81;100.00;100144.72;5076363;28;20027;-74
2022/08/15 03:09:07;;;;;;;10.65;7.18;;;;;;;16.82;100.00;100148.25;5067303;28;20056;-75
2022/08/15 03:11:38;;;;;;;12.77;7.80;;;;;;;16.85;100.00;100142.41;5061330;28;20036;-75
2022/08/15 03:14:10;;;;;;;11.57;7.72;;;;;;;16.88;100.00;100153.59;5083223;28;20083;-75
2022/08/15 03:16:40;;;;;;;14.90;8.07;;;;;;;16.93;100.00;100160.19;5069001;28;20020;-75
2022/08/15 03:19:08;;;;;;;11.40;7.05;;;;;;;16.92;100.00;100167.44;5083387;28;20032;-75
2022/08/15 03:21:35;;;;;;;10.35;8.00;;;;;;;16.95;100.00;100155.41;5068350;28;20473;-75
2022/08/15 03:24:02;;;;;;;12.52;7.15;;;;;;;16.98;100.00;100154.97;5083771;28;20107;-75
2022/08/15 03:26:28;;;;;;;12.70;8.45;;;;;;;16.99;100.00;100148.53;5082616;28;20020;-75
2022/08/15 03:28:54;;;;;;;15.38;8.68;;;;;;;17.07;100.00;100159.06;5083550;28;20111;-75
2022/08/15 03:31:20;;;;;;;13.07;7.80;;;;;;;17.04;100.00;100156.78;5082036;28;20467;-75
2022/08/15 03:33:46;;;;;;;12.18;8.73;;;;;;;17.00;100.00;100156.41;5066643;28;20128;-75
2022/08/15 03:36:20;;;;;;;11.77;8.07;;;;;;;17.05;100.00;100150.38;5065669;28;20032;-75
2022/08/15 03:38:46;;;;;;;9.60;8.23;;;;;;;17.05;100.00;100145.78;5084532;28;20101;-75
2022/08/15 03:41:13;;;;;;;17.95;8.93;;;;;;;17.07;100.00;100142.88;5074610;28;20421;-74
2022/08/15 03:43:44;;;;;;;12.82;8.75;;;;;;;17.09;100.00;100156.94;5083436;28;20035;-74
2022/08/15 03:46:13;;;;;;;14.93;9.65;;;;;;;17.07;100.00;100146.41;5065827;28;20515;-75
2022/08/15 03:48:47;;;;;;;12.52;9.45;;;;;;;17.03;100.00;100145.19;5083147;28;20539;-75
2022/08/15 03:51:14;;;;;;;9.55;8.45;;;;;;;17.03;100.00;100144.34;5081843;28;20058;-75
2022/08/15 03:53:53;;;;;;;15.60;10.18;;;;;;;17.09;100.00;100148.84;5066352;28;20027;-75
2022/08/15 03:56:25;;;;;;;11.52;8.32;;;;;;;17.18;100.00;100138.63;5081712;28;20450;-75
2022/08/15 03:58:53;;;;;;;11.02;8.77;;;;;;;17.17;100.00;100135.13;5066216;28;20036;-75
2022/08/15 04:01:23;;;;;;;18.58;9.88;;;;;;;17.14;100.00;100132.00;5081751;28;20016;-74
2022/08/15 04:03:50;;;;;;;14.70;9.82;;;;;;;17.14;100.00;100130.16;5066265;28;20040;-75
2022/08/15 04:06:20;;;;;;;16.15;9.65;;;;;;;17.19;100.00;100133.03;5081914;28;20023;-75
2022/08/15 04:08:50;;;;;;;13.00;9.30;;;;;;;17.15;100.00;100131.00;5082864;28;20035;-75
2022/08/15 04:11:18;;;;;;;11.82;9.73;;;;;;;17.13;100.00;100123.09;5064061;28;20485;-75
2022/08/15 04:13:44;;;;;;;16.40;9.32;;;;;;;17.16;100.00;100124.53;5076940;28;20027;-75
2022/08/15 04:16:13;;;;;;;13.32;8.90;;;;;;;17.09;100.00;100132.69;5065312;28;20066;-75
2022/08/15 04:18:39;;;;;;;19.23;9.27;;;;;;;17.10;100.00;100131.66;5082627;28;20020;-74
2022/08/15 04:21:08;;;;;;;14.18;9.13;;;;;;;17.13;100.00;100133.91;5065430;28;20038;-75
2022/08/15 04:23:34;;;;;;;13.52;9.70;;;;;;;17.20;100.00;100134.66;5083955;28;20095;-74
2022/08/15 04:26:01;;;;;;;12.32;10.52;;;;;;;17.24;100.00;100130.47;5082088;28;20081;-75
2022/08/15 04:28:29;;;;;;;17.10;10.68;;;;;;;17.32;100.00;100125.84;5065175;28;20448;-74
2022/08/15 04:30:57;;;;;;;16.55;10.48;;;;;;;17.35;100.00;100125.41;5081795;28;20504;-75
2022/08/15 04:33:29;;;;;;;16.02;11.43;;;;;;;17.33;100.00;100131.03;5081862;28;20488;-75
2022/08/15 04:36:04;;;;;;;15.50;10.18;;;;;;;17.32;100.00;100131.25;5066708;28;20392;-75
2022/08/15 04:38:32;;;;;;;14.63;10.05;;;;;;;17.32;100.00;100129.38;5066481;28;20024;-75
2022/08/15 04:40:59;;;;;;;15.95;9.95;;;;;;;17.34;100.00;100123.75;5082319;28;20103;-75
2022/08/15 04:43:25;;;;;;;20.95;11.55;;;;;;;17.42;100.00;100121.59;5082439;28;20043;-75
2022/08/15 04:45:52;;;;;;;16.23;13.07;;;;;;;17.46;100.00;100127.38;5082379;28;20465;-75
2022/08/15 04:48:19;;;;;;;18.02;12.73;;;;;;;17.50;100.00;100132.09;5075004;28;20031;-75
2022/08/15 04:50:48;;;;;;;17.95;11.55;;;;;;;17.44;100.00;100140.25;5081898;28;20396;-75
2022/08/15 04:53:15;;;;;;;11.27;10.07;;;;;;;17.45;100.00;100136.53;5064881;28;20038;-75
2022/08/15 04:55:43;;;;;;;17.17;9.38;;;;;;;17.45;100.00;100133.84;5082676;28;20134;-74
2022/08/15 04:58:13;;;;;;;13.18;9.52;;;;;;;17.47;100.00;100123.66;5065038;28;20132;-76
2022/08/15 05:00:41;;;;;;;14.73;8.82;;;;;;;17.49;100.00;100127.75;5064803;28;20078;-75
2022/08/15 05:03:16;;;;;;;13.52;9.88;;;;;;;17.53;100.00;100128.13;5065590;28;20040;-75
2022/08/15 05:05:49;;;;;;;15.55;9.20;;;;;;;17.60;100.00;100126.19;5077411;28;20041;-75
2022/08/15 05:08:15;;;;;;;14.50;9.75;;;;;;;17.69;100.00;100126.72;5071532;28;20028;-75
2022/08/15 05:10:49;;;;;;;14.05;9.48;;;;;;;17.76;100.00;100124.78;5063516;28;20151;-75
2022/08/15 05:13:19;;;;;;;22.55;12.68;;;;;;;17.86;100.00;100126.97;5064664;28;20063;-74
2022/08/15 05:15:47;;;;;;;18.60;12.25;;;;;;;17.92;100.00;100135.00;5069714;28;20036;-75
2022/08/15 05:18:12;;;;;;;16.95;11.05;;;;;;;17.96;100.00;100137.25;5054696;28;20039;-75
2022/08/15 05:20:42;;;;;;;14.45;10.50;;;;;;;18.21;100.00;100142.56;5071060;28;20017;-75
2022/08/15 05:23:10;;;;;;;20.88;11.75;;;;;;;18.49;100.00;100150.91;5072296;28;20036;-75
2022/08/15 05:25:50;;;;;;;17.50;11.45;;;;;;;19.03;100.00;100150.16;5076263;28;20024;-75
2022/08/15 05:28:18;;;;;;;15.55;9.98;;;;;;;20.08;100.00;100138.47;5080433;28;20123;-75
2022/08/15 05:30:44;;;;;;;;;;;;;;;20.97;100.00;100124.41;5063571;28;20028;-75
2022/08/15 05:33:16;;;;;;;17.50;7.57;;;;;;;21.80;100.00;100115.63;5054433;28;19957;-75
2022/08/15 05:35:46;;;;;;;13.13;6.47;;;;;;;22.62;100.00;100094.78;5074294;28;20452;-74
2022/08/15 05:38:35;;;;;;;11.75;6.15;;;;;;;23.08;100.00;100060.59;5050493;28;20543;-75
2022/08/15 05:41:07;;;;;;;11.65;6.80;;;;;;;23.29;100.00;99995.38;5080630;28;20035;-75
2022/08/15 05:43:50;;;;;;;13.55;6.53;;;;;;;23.56;100.00;99977.00;5068105;28;20393;-75
2022/08/15 05:46:24;;;;;;;11.88;6.15;;;;;;;24.11;100.00;99950.13;5081898;28;20032;-75
2022/08/15 05:49:05;;;;;;;10.02;6.60;;;;;;;23.58;100.00;99903.97;5079873;28;20127;-75
2022/08/15 05:51:35;;;;;;;12.85;6.90;;;;;;;23.13;100.00;99969.97;5066798;28;20025;-76
2022/08/15 05:54:22;;;;;;;10.75;7.00;;;;;;;22.30;100.00;99997.69;5083258;28;20475;-75
2022/08/15 05:57:09;;;;;;;11.15;6.70;;;;;;;21.59;100.00;100062.91;5061506;28;20039;-75
2022/08/15 05:59:39;;;;;;;17.42;7.20;;;;;;;21.41;100.00;100089.28;5057518;28;20036;-75
2022/08/15 06:02:12;;;;;;;9.93;7.50;;;;;;;21.14;100.00;100102.72;5067013;28;20047;-75
2022/08/15 06:04:47;;;;;;;13.25;9.60;;;;;;;20.96;100.00;100133.63;5071877;28;20060;-75
2022/08/15 06:07:15;;;;;;;9.15;6.82;;;;;;;21.20;100.00;100138.88;5083442;28;20416;-75
2022/08/15 06:10:09;;;;;;;11.07;7.22;;;;;;;21.76;100.00;100136.19;5068063;28;20188;-75
2022/08/15 06:12:44;;;;;;;17.33;8.13;;;;;;;21.75;100.00;100102.78;5068338;28;20040;-76
2022/08/15 06:15:19;;;;;;;11.80;6.40;;;;;;;22.62;100.00;100117.38;5073995;28;20043;-75
2022/08/15 06:17:55;;;;;;;9.55;5.30;;;;;;;23.30;100.00;100055.03;5059203;28;20532;-76
2022/08/15 06:20:42;;;;;;;9.63;6.80;;;;;;;24.02;100.00;100009.00;5073541;28;20740;-76
2022/08/15 06:23:27;;;;;;;11.30;6.47;;;;;;;24.41;100.00;99927.50;5073807;28;20421;-75
2022/08/15 06:26:11;;;;;;;10.90;6.75;;;;;;;24.75;100.00;99861.44;5059653;28;20688;-75
2022/08/15 06:29:08;;;;;;;10.88;5.95;;;;;;;25.09;100.00;99858.00;5073744;28;20519;-75
2022/08/15 06:31:37;;;;;;;10.65;5.22;;;;;;;24.88;100.00;99846.38;5064904;28;20039;-75
2022/08/15 06:34:25;;;;;;;8.68;6.43;;;;;;;24.33;100.00;99899.97;5081540;28;20575;-76
2022/08/15 06:37:31;;;;;;;8.05;6.38;;;;;;;24.09;100.00;99916.91;5071317;28;20644;-75
2022/08/15 06:40:15;;;;;;;9.50;5.85;;;;;;;25.01;100.00;99971.38;5072084;28;20036;-75
2022/08/15 06:42:43;;;;;;;8.60;5.72;;;;;;;25.81;100.00;99912.28;5068704;28;20123;-76
2022/08/15 06:45:19;;;;;;;10.23;5.55;;;;;;;26.39;100.00;99871.34;5067226;28;20059;-75
2022/08/15 06:47:46;;;;;;;12.50;6.63;;;;;;;26.10;100.00;99809.25;5067687;28;20032;-76
2022/08/15 06:50:18;;;;;;;10.13;5.13;;;;;;;26.24;100.00;99868.75;5051606;28;20029;-76
2022/08/15 06:52:54;;;;;;;9.70;5.68;;;;;;;26.16;100.00;99812.75;5067694;28;20071;-77
2022/08/15 06:55:22;;;;;;;13.05;5.45;;;;;;;26.18;100.00;99823.41;5075957;28;20036;-76
2022/08/15 06:58:10;;;;;;;12.25;5.32;;;;;;;26.37;100.00;99805.16;5076817;28;20026;-77
2022/08/15 07:00:45;;;;;;;10.25;5.40;;;;;;;26.81;100.00;99817.81;5057996;28;20028;-76
2022/08/15 07:03:30;;;;;;;9.45;4.72;;;;;;;26.57;100.00;99789.63;5074270;28;20031;-77
2022/08/15 07:05:57;;;;;;;12.52;6.25;;;;;;;26.21;100.00;99893.97;5069986;28;20047;-76
2022/08/15 07:08:53;;;;;;;7.82;5.43;;;;;;;25.64;100.00;99890.81;5082832;28;20023;-77
2022/08/15 07:11:54;;;;;;;14.63;5.82;;;;;;;25.08;100.00;99992.94;5073864;28;20064;-77
2022/08/15 07:14:43;;;;;;;7.20;5.45;;;;;;;25.57;100.00;100016.03;5061061;28;20029;-77
2022/08/15 07:17:15;;;;;;;9.50;5.82;;;;;;;26.22;100.00;99947.56;5071138;28;20036;-76
2022/08/15 07:19:40;;;;;;;7.88;6.03;;;;;;;26.37;100.00;99840.72;5060298;28;20035;-76
2022/08/15 07:22:13;;;;;;;8.77;5.95;;;;;;;26.10;100.00;99942.44;5063276;28;20020;-76
2022/08/15 07:24:49;;;;;;;11.70;5.95;;;;;;;26.47;100.00;99957.47;5072128;28;20024;-74
2022/08/15 07:27:17;;;;;;;21.75;7.88;;;;;;;26.94;100.00;99923.06;5057468;28;20036;-74
2022/08/15 07:29:48;;;;;;;9.45;5.88;;;;;;;26.91;100.00;99853.28;5063584;28;20041;-74
2022/08/15 07:32:17;;;;;;;9.35;6.63;;;;;;;27.10;100.00;99923.72;5057968;28;20028;-74
2022/08/15 07:35:09;;;;;;;10.18;6.10;;;;;;;26.48;100.00;99866.88;5063025;28;20029;-74
2022/08/15 07:37:38;;;;;;;8.90;5.43;;;;;;;27.57;100.00;99938.47;5054164;28;20046;-75
2022/08/15 07:40:14;;;;;;;11.32;5.50;;;;;;;27.46;99.34;99861.03;5059100;28;20020;-74
2022/08/15 07:42:42;;;;;;;7.25;5.88;;;;;;;27.90;99.97;99922.13;5067540;28;20051;-74
2022/08/15 07:45:25;;;;;;;9.32;6.95;;;;;;;26.91;94.33;99759.34;5050970;28;20111;-74
2022/08/15 07:47:56;;;;;;;12.30;6.90;;;;;;;25.94;100.00;99829.63;5056666;28;20155;-75
2022/08/15 07:50:32;;;;;;;13.45;7.43;;;;;;;26.79;100.00;99924.06;5057566;28;20703;-75
2022/08/15 07:53:04;;;;;;;;;;;;;;;27.23;96.82;99872.88;5061062;28;20094;-75
2022/08/15 07:55:32;;;;;;;7.22;6.53;;;;;;;27.96;92.14;99864.16;5056804;28;19912;-74
2022/08/15 07:58:05;;;;;;;11.80;6.22;;;;;;;27.65;88.77;99772.50;5064835;28;20029;-74
2022/08/15 08:00:34;;;;;;;8.68;6.45;;;;;;;27.22;94.29;99855.63;5058869;28;20024;-74
2022/08/15 08:03:11;;;;;;;11.52;6.85;;;;;;;27.42;88.38;99774.22;5064439;28;20021;-74
2022/08/15 08:05:49;;;;;;;10.05;7.18;;;;;;;26.61;87.01;99672.97;5057523;28;20032;-74
2022/08/15 08:08:17;;;;;;;14.25;8.30;;;;;;;27.16;84.32;99693.25;5064465;28;20086;-75
2022/08/15 08:10:53;;;;;;;12.18;7.45;;;;;;;28.34;80.06;99753.44;5064472;28;20428;-74
2022/08/15 08:13:38;;;;;;;10.60;7.93;;;;;;;28.11;79.87;99739.59;5064570;28;20470;-73
2022/08/15 08:16:24;;;;;;;14.77;8.15;;;;;;;28.41;73.35;99580.91;5048371;28;20028;-74
2022/08/15 08:19:18;;;;;;;11.48;8.18;;;;;;;28.60;73.84;99655.72;5064694;28;20054;-74
2022/08/15 08:22:06;;;;;;;11.20;7.93;;;;;;;28.88;71.62;99652.09;5058323;28;20039;-74
2022/08/15 08:24:38;;;;;;;10.13;7.65;;;;;;;28.42;69.66;99505.69;5056491;28;20060;-73
2022/08/15 08:27:14;;;;;;;16.42;7.57;;;;;;;28.52;69.06;99535.69;5079109;28;20657;-74
2022/08/15 08:30:00;;;;;;;13.60;7.80;;;;;;;27.62;69.42;99413.97;5068509;28;20393;-74
2022/08/15 08:32:37;;;;;;;9.93;7.90;;;;;;;26.45;76.26;99511.69;5078755;28;20028;-74
2022/08/15 08:35:21;;;;;;;15.25;8.32;;;;;;;25.98;83.40;99647.47;5063677;28;20523;-73
2022/08/15 08:38:05;;;;;;;10.95;8.20;;;;;;;27.25;78.40;99696.13;5078064;28;20046;-74
2022/08/15 08:41:29;;;;;;;19.75;8.25;;;;;;;26.64;78.56;99620.38;5082375;28;20026;-74
2022/08/15 08:43:57;;;;;;;11.00;7.75;;;;;;;27.64;79.28;99787.31;4996588;28;20104;-74
2022/08/15 08:46:33;;;;;;;14.13;9.32;;;;;;;28.10;73.50;99674.09;4984331;28;20530;-74
2022/08/15 08:49:09;;;;;;;10.90;7.60;;;;;;;27.78;74.30;99667.53;5051423;28;20052;-74
2022/08/15 08:52:02;;;;;;;14.85;8.25;;;;;;;27.57;76.36;99705.47;5056434;28;20048;-74
2022/08/15 08:54:59;;;;;;;13.80;8.63;;;;;;;27.35;78.57;99730.78;5082885;28;20028;-74
2022/08/15 08:57:31;;;;;;;16.10;8.05;;;;;;;28.17;74.84;99746.63;5082709;28;20041;-74
2022/08/15 09:00:12;;;;;;;15.13;7.38;;;;;;;27.91;74.14;99693.34;5083194;28;20028;-74
2022/08/15 09:02:43;;;;;;;13.45;7.72;;;;;;;28.80;68.24;99637.16;5069663;28;20044;-74
2022/08/15 09:05:17;;;;;;;12.50;7.97;;;;;;;29.53;64.12;99562.78;5074666;28;20032;-74
2022/08/15 09:07:48;;;;;;;12.65;7.72;;;;;;;29.87;62.19;99542.81;5071023;28;20028;-75
2022/08/15 09:10:24;;;;;;;11.90;8.32;;;;;;;30.68;58.84;99498.19;5073913;28;20028;-74
2022/08/15 09:15:41;;;;;;;9.35;7.43;;;;;;;29.73;59.86;99443.13;5087420;28;20036;-74
2022/08/15 09:18:11;;;;;;;10.77;8.23;;;;;;;29.39;57.83;99272.31;5085571;28;20373;-74
2022/08/15 09:20:39;;;;;;;13.13;8.02;;;;;;;30.13;59.23;99520.03;5071235;28;20031;-74
2022/08/15 09:23:10;;;;;;;13.10;8.20;;;;;;;30.02;56.85;99346.22;5086284;28;20023;-73
2022/08/15 09:25:49;;;;;;;11.65;8.15;;;;;;;29.70;56.73;99230.09;5061700;28;20043;-74
2022/08/15 09:28:21;;;;;;;8.50;7.10;;;;;;;30.62;56.28;99414.09;5079564;28;20028;-74
2022/08/15 09:30:48;;;;;;;10.57;8.20;;;;;;;30.04;54.86;99195.34;5084685;28;20695;-75
2022/08/15 09:33:36;;;;;;;11.13;8.02;;;;;;;29.96;55.74;99298.00;5086316;28;20043;-74
2022/08/15 09:36:24;;;;;;;18.27;8.80;;;;;;;30.01;57.36;99422.44;5085779;28;20046;-74
2022/08/15 09:39:07;;;;;;;12.30;7.50;;;;;;;31.47;52.86;99382.94;5086986;28;20024;-74
2022/08/15 09:41:53;;;;;;;13.30;8.73;;;;;;;32.32;52.48;99472.03;5083829;28;20107;-75
2022/08/15 09:44:49;;;;;;;15.20;8.90;;;;;;;30.98;52.16;99200.69;5083509;28;20120;-74
2022/08/15 09:48:05;;;;;;;9.75;8.05;;;;;;;31.01;52.22;99224.81;5085929;28;20060;-75
2022/08/15 09:50:35;;;;;;;11.30;7.82;;;;;;;31.35;53.67;99446.22;5039449;28;20147;-75
2022/08/15 09:53:01;;;;;;;10.43;7.53;;;;;;;32.15;50.50;99340.50;5080256;28;20063;-75
2022/08/15 09:55:28;;;;;;;;;;;;;;;31.82;50.51;99263.19;5084790;28;20466;-75
2022/08/15 09:57:56;;;;;;;11.45;8.23;;;;;;;31.75;49.66;99176.28;5086728;28;19912;-75
2022/08/15 10:00:21;;;;;;;18.83;7.45;;;;;;;31.40;52.56;99360.59;5077750;28;20029;-75
2022/08/15 10:02:48;;;;;;;;;;;;;;;31.55;51.06;99282.78;5086847;28;20085;-74
2022/08/15 10:05:23;;;;;;;10.98;8.40;;;;;;;31.96;50.00;99249.94;5085621;28;19908;-75
2022/08/15 10:08:01;;;;;;;13.27;7.57;;;;;;;31.57;49.79;99188.66;5085133;28;20047;-74
2022/08/15 10:10:34;;;;;;;10.90;7.80;;;;;;;31.10;51.12;99225.56;5083725;28;20033;-74
2022/08/15 10:13:24;;;;;;;9.63;7.72;;;;;;;30.43;52.40;99180.44;5086473;28;20040;-74
2022/08/15 10:15:50;;;;;;;10.93;7.68;;;;;;;30.91;52.49;99294.09;5084666;28;20028;-74
2022/08/15 10:18:27;;;;;;;;;;;;;;;29.46;55.43;99225.09;5084526;28;20380;-74
2022/08/15 10:20:57;;;;;;;13.02;7.68;;;;;;;30.44;53.53;99285.91;5085732;28;19912;-74
2022/08/15 10:23:29;;;;;;;10.68;6.82;;;;;;;30.58;52.68;99275.47;5085024;28;20074;-74
2022/08/15 10:26:13;;;;;;;13.88;8.65;;;;;;;30.76;52.36;99280.88;5086091;28;20614;-74
2022/08/15 10:28:40;;;;;;;10.50;7.97;;;;;;;29.90;52.76;99134.25;5070914;28;20028;-74
2022/08/15 10:31:08;;;;;;;11.40;7.97;;;;;;;30.37;53.38;99302.94;5084947;28;20020;-74
2022/08/15 10:33:45;;;;;;;10.63;8.18;;;;;;;30.79;51.63;99274.69;5086036;28;20048;-74
2022/08/15 10:36:13;;;;;;;10.23;7.43;;;;;;;29.90;52.61;99107.56;5085462;28;20031;-74
2022/08/15 10:39:10;;;;;;;14.45;8.40;;;;;;;29.49;55.51;99317.09;5084585;28;20020;-74
2022/08/15 10:41:39;;;;;;;11.32;7.78;;;;;;;30.22;54.16;99340.00;5085535;28;20020;-74
2022/08/15 10:44:10;;;;;;;9.75;8.10;;;;;;;29.75;55.44;99315.16;5084976;28;20232;-73
2022/08/15 10:47:00;;;;;;;12.75;7.65;;;;;;;29.88;55.26;99332.66;5059982;28;20033;-73
2022/08/15 10:49:42;;;;;;;10.00;8.20;;;;;;;30.22;53.75;99290.47;5074044;28;20128;-75
2022/08/15 10:52:32;;;;;;;9.43;8.02;;;;;;;29.48;55.19;99244.00;5065849;28;20087;-74
2022/08/15 10:55:06;;;;;;;11.25;7.32;;;;;;;29.00;56.42;99246.53;5079916;28;20036;-73
2022/08/15 10:57:48;;;;;;;11.63;7.80;;;;;;;29.42;54.64;99230.41;5084407;28;20034;-74
2022/08/15 11:00:34;;;;;;;10.93;7.78;;;;;;;29.58;55.67;99332.47;5075005;28;20037;-74
2022/08/15 11:03:02;;;;;;;10.60;8.05;;;;;;;29.52;55.30;99305.44;5067172;28;20086;-74
2022/08/15 11:05:28;;;;;;;10.95;8.07;;;;;;;29.38;57.06;99366.88;5065592;28;20031;-74
2022/08/15 11:07:55;;;;;;;13.75;8.73;;;;;;;29.28;56.98;99322.44;5065677;28;20032;-74
2022/08/15 11:10:25;;;;;;;10.95;8.90;;;;;;;28.89;58.87;99371.59;5066369;28;20034;-74
2022/08/15 11:12:54;;;;;;;12.77;8.43;;;;;;;29.74;58.33;99522.59;5066814;28;20112;-74
2022/08/15 11:15:20;;;;;;;12.98;8.52;;;;;;;31.06;52.67;99361.59;5074405;28;20047;-74
2022/08/15 11:17:50;;;;;;;9.77;7.75;;;;;;;30.69;51.28;99177.53;5072860;28;20037;-75
2022/08/15 11:20:21;;;;;;;9.18;7.43;;;;;;;31.20;50.09;99238.13;5064746;28;20043;-75
2022/08/15 11:22:58;;;;;;;9.55;7.95;;;;;;;31.90;49.78;99334.06;5065363;28;20083;-75
2022/08/15 11:25:28;;;;;;;9.35;7.55;;;;;;;32.66;48.15;99338.28;5065118;28;20141;-74
2022/08/15 11:28:10;;;;;;;9.57;8.57;;;;;;;31.41;48.56;99127.03;5065130;28;20119;-74
2022/08/15 11:30:37;;;;;;;12.05;8.93;;;;;;;31.29;49.16;99138.81;5065930;28;20081;-74
2022/08/15 11:33:18;;;;;;;12.98;7.82;;;;;;;31.94;49.10;99275.09;5064943;28;20031;-74
2022/08/15 11:35:45;;;;;;;10.18;7.88;;;;;;;31.49;49.34;99220.72;5061828;28;20060;-74
2022/08/15 11:38:15;;;;;;;10.93;7.78;;;;;;;31.58;50.04;99299.78;5064860;28;20009;-75
2022/08/15 11:40:42;;;;;;;9.68;8.23;;;;;;;30.71;51.11;99158.72;5065018;28;20144;-73
2022/08/15 11:43:15;;;;;;;11.77;8.20;;;;;;;31.09;50.56;99201.91;5066166;28;20501;-74
2022/08/15 11:45:46;;;;;;;10.10;7.75;;;;;;;31.72;49.95;99317.66;5058324;28;20972;-76
2022/08/15 11:48:18;;;;;;;14.70;8.65;;;;;;;32.03;49.26;99316.44;5065036;28;20036;-76
2022/08/15 11:50:57;;;;;;;10.38;7.65;;;;;;;32.38;48.11;99263.56;5065498;28;20086;-74
2022/08/15 11:53:27;;;;;;;9.95;6.95;;;;;;;32.56;47.74;99264.97;5067732;28;20051;-74